sensor_id;sensor_type;location;lat;lon;timestamp;P1;durP1;ratioP1;P2;durP2;ratioP2
39750;SDS011;37579;51.074;17.004;2022-12-05T00:00:44;9.60;;;6.45;;
39750;SDS011;37579;51.074;17.004;2022-12-05T00:03:10;8.05;;;6.30;;
39750;SDS011;37579;51.074;17.004;2022-12-05T00:05:38;7.88;;;5.88;;
39750;SDS011;37579;51.074;17.004;2022-12-05T00:08:05;7.50;;;5.80;;
39750;SDS011;37579;51.074;17.004;2022-12-05T00:10:30;9.13;;;5.95;;
39750;SDS011;37579;51.074;17.004;2022-12-05T00:12:56;7.68;;;5.90;;
39750;SDS011;37579;51.074;17.004;2022-12-05T00:15:22;7.60;;;5.60;;
39750;SDS011;37579;51.074;17.004;2022-12-05T00:17:47;8.35;;;5.80;;
39750;SDS011;37579;51.074;17.004;2022-12-05T00:20:14;8.38;;;5.97;;
39750;SDS011;37579;51.074;17.004;2022-12-05T00:22:40;7.35;;;6.10;;
39750;SDS011;37579;51.074;17.004;2022-12-05T00:25:06;7.07;;;6.15;;
39750;SDS011;37579;51.074;17.004;2022-12-05T00:27:32;9.93;;;6.57;;
39750;SDS011;37579;51.074;17.004;2022-12-05T00:29:58;7.53;;;5.95;;
39750;SDS011;37579;51.074;17.004;2022-12-05T00:32:24;8.27;;;6.32;;
39750;SDS011;37579;51.074;17.004;2022-12-05T00:34:52;8.20;;;6.20;;
39750;SDS011;37579;51.074;17.004;2022-12-05T00:37:17;7.65;;;5.65;;
39750;SDS011;37579;51.074;17.004;2022-12-05T00:39:43;7.50;;;5.63;;
39750;SDS011;37579;51.074;17.004;2022-12-05T00:42:09;9.98;;;6.72;;
39750;SDS011;37579;51.074;17.004;2022-12-05T00:44:34;7.68;;;6.10;;
39750;SDS011;37579;51.074;17.004;2022-12-05T00:47:01;8.40;;;6.15;;
39750;SDS011;37579;51.074;17.004;2022-12-05T00:49:27;7.68;;;6.22;;
39750;SDS011;37579;51.074;17.004;2022-12-05T00:51:53;7.70;;;5.80;;
39750;SDS011;37579;51.074;17.004;2022-12-05T00:54:19;8.68;;;6.47;;
39750;SDS011;37579;51.074;17.004;2022-12-05T00:56:45;8.25;;;6.70;;
39750;SDS011;37579;51.074;17.004;2022-12-05T00:59:15;7.03;;;5.68;;
39750;SDS011;37579;51.074;17.004;2022-12-05T01:01:43;8.00;;;5.80;;
39750;SDS011;37579;51.074;17.004;2022-12-05T01:04:28;7.85;;;6.30;;
39750;SDS011;37579;51.074;17.004;2022-12-05T01:06:54;7.32;;;5.88;;
39750;SDS011;37579;51.074;17.004;2022-12-05T01:09:21;7.90;;;5.97;;
39750;SDS011;37579;51.074;17.004;2022-12-05T01:11:47;7.80;;;6.38;;
39750;SDS011;37579;51.074;17.004;2022-12-05T01:14:14;6.63;;;5.47;;
39750;SDS011;37579;51.074;17.004;2022-12-05T01:16:43;7.68;;;5.82;;
39750;SDS011;37579;51.074;17.004;2022-12-05T01:19:15;7.30;;;5.85;;
39750;SDS011;37579;51.074;17.004;2022-12-05T01:21:43;11.07;;;6.47;;
39750;SDS011;37579;51.074;17.004;2022-12-05T01:24:09;8.93;;;6.38;;
39750;SDS011;37579;51.074;17.004;2022-12-05T01:26:36;8.18;;;6.28;;
39750;SDS011;37579;51.074;17.004;2022-12-05T01:29:03;8.45;;;6.00;;
39750;SDS011;37579;51.074;17.004;2022-12-05T01:31:31;7.57;;;5.88;;
39750;SDS011;37579;51.074;17.004;2022-12-05T01:33:59;8.68;;;6.22;;
39750;SDS011;37579;51.074;17.004;2022-12-05T01:36:26;9.45;;;6.35;;
39750;SDS011;37579;51.074;17.004;2022-12-05T01:38:53;8.13;;;5.93;;
39750;SDS011;37579;51.074;17.004;2022-12-05T01:41:30;8.00;;;6.15;;
39750;SDS011;37579;51.074;17.004;2022-12-05T01:44:57;8.65;;;6.65;;
39750;SDS011;37579;51.074;17.004;2022-12-05T01:46:44;7.65;;;5.93;;
39750;SDS011;37579;51.074;17.004;2022-12-05T01:49:14;8.32;;;6.15;;
39750;SDS011;37579;51.074;17.004;2022-12-05T01:51:45;7.35;;;6.03;;
39750;SDS011;37579;51.074;17.004;2022-12-05T01:54:13;6.88;;;5.68;;
39750;SDS011;37579;51.074;17.004;2022-12-05T01:56:41;6.95;;;5.57;;
39750;SDS011;37579;51.074;17.004;2022-12-05T01:59:10;8.20;;;6.03;;
39750;SDS011;37579;51.074;17.004;2022-12-05T02:01:36;8.15;;;6.10;;
39750;SDS011;37579;51.074;17.004;2022-12-05T02:04:03;8.27;;;6.57;;
39750;SDS011;37579;51.074;17.004;2022-12-05T02:06:29;8.20;;;6.75;;
39750;SDS011;37579;51.074;17.004;2022-12-05T02:08:57;8.15;;;6.22;;
39750;SDS011;37579;51.074;17.004;2022-12-05T02:11:23;7.28;;;6.03;;
39750;SDS011;37579;51.074;17.004;2022-12-05T02:16:44;8.32;;;6.43;;
39750;SDS011;37579;51.074;17.004;2022-12-05T02:25:09;7.18;;;5.38;;
39750;SDS011;37579;51.074;17.004;2022-12-05T02:28:02;8.52;;;6.43;;
39750;SDS011;37579;51.074;17.004;2022-12-05T02:30:42;7.78;;;6.35;;
39750;SDS011;37579;51.074;17.004;2022-12-05T02:33:36;8.32;;;5.85;;
39750;SDS011;37579;51.074;17.004;2022-12-05T02:36:26;7.78;;;6.25;;
39750;SDS011;37579;51.074;17.004;2022-12-05T02:39:13;8.57;;;6.07;;
39750;SDS011;37579;51.074;17.004;2022-12-05T02:41:51;7.57;;;5.78;;
39750;SDS011;37579;51.074;17.004;2022-12-05T02:44:42;8.30;;;6.07;;
39750;SDS011;37579;51.074;17.004;2022-12-05T02:47:13;7.57;;;5.75;;
39750;SDS011;37579;51.074;17.004;2022-12-05T02:49:42;6.93;;;5.57;;
39750;SDS011;37579;51.074;17.004;2022-12-05T02:52:09;7.32;;;5.72;;
39750;SDS011;37579;51.074;17.004;2022-12-05T02:54:40;7.65;;;6.10;;
39750;SDS011;37579;51.074;17.004;2022-12-05T02:57:08;7.78;;;5.97;;
39750;SDS011;37579;51.074;17.004;2022-12-05T02:59:36;9.40;;;6.45;;
39750;SDS011;37579;51.074;17.004;2022-12-05T03:02:02;6.78;;;5.50;;
39750;SDS011;37579;51.074;17.004;2022-12-05T03:04:28;7.45;;;5.72;;
39750;SDS011;37579;51.074;17.004;2022-12-05T03:09:42;7.40;;;5.97;;
39750;SDS011;37579;51.074;17.004;2022-12-05T03:12:17;8.48;;;6.32;;
39750;SDS011;37579;51.074;17.004;2022-12-05T03:15:02;7.55;;;5.90;;
39750;SDS011;37579;51.074;17.004;2022-12-05T03:17:35;7.10;;;5.82;;
39750;SDS011;37579;51.074;17.004;2022-12-05T03:20:12;6.75;;;5.35;;
39750;SDS011;37579;51.074;17.004;2022-12-05T03:25:13;7.93;;;6.13;;
39750;SDS011;37579;51.074;17.004;2022-12-05T03:27:43;6.47;;;5.32;;
39750;SDS011;37579;51.074;17.004;2022-12-05T03:30:12;7.00;;;5.60;;
39750;SDS011;37579;51.074;17.004;2022-12-05T03:37:46;6.70;;;5.85;;
39750;SDS011;37579;51.074;17.004;2022-12-05T03:43:26;7.15;;;5.43;;
39750;SDS011;37579;51.074;17.004;2022-12-05T03:48:31;6.72;;;5.40;;
39750;SDS011;37579;51.074;17.004;2022-12-05T03:51:06;7.55;;;6.07;;
39750;SDS011;37579;51.074;17.004;2022-12-05T03:56:30;6.90;;;5.63;;
39750;SDS011;37579;51.074;17.004;2022-12-05T04:01:44;6.80;;;5.57;;
39750;SDS011;37579;51.074;17.004;2022-12-05T04:04:15;6.97;;;5.35;;
39750;SDS011;37579;51.074;17.004;2022-12-05T04:06:50;6.82;;;5.43;;
39750;SDS011;37579;51.074;17.004;2022-12-05T04:09:21;7.00;;;5.57;;
39750;SDS011;37579;51.074;17.004;2022-12-05T04:11:56;6.10;;;5.05;;
39750;SDS011;37579;51.074;17.004;2022-12-05T04:14:32;7.25;;;5.70;;
39750;SDS011;37579;51.074;17.004;2022-12-05T04:17:05;7.25;;;5.82;;
39750;SDS011;37579;51.074;17.004;2022-12-05T04:19:51;6.82;;;5.45;;
39750;SDS011;37579;51.074;17.004;2022-12-05T04:22:39;6.53;;;5.43;;
39750;SDS011;37579;51.074;17.004;2022-12-05T04:25:08;7.05;;;5.70;;
39750;SDS011;37579;51.074;17.004;2022-12-05T04:30:24;6.72;;;5.45;;
39750;SDS011;37579;51.074;17.004;2022-12-05T04:32:58;5.88;;;5.07;;
39750;SDS011;37579;51.074;17.004;2022-12-05T04:35:40;7.32;;;5.22;;
39750;SDS011;37579;51.074;17.004;2022-12-05T04:38:22;6.13;;;5.22;;
39750;SDS011;37579;51.074;17.004;2022-12-05T04:40:58;7.00;;;5.30;;
39750;SDS011;37579;51.074;17.004;2022-12-05T04:43:27;6.78;;;5.15;;
39750;SDS011;37579;51.074;17.004;2022-12-05T04:45:57;7.03;;;5.22;;
39750;SDS011;37579;51.074;17.004;2022-12-05T04:48:25;6.82;;;5.47;;
39750;SDS011;37579;51.074;17.004;2022-12-05T04:50:52;7.18;;;5.50;;
39750;SDS011;37579;51.074;17.004;2022-12-05T04:53:21;6.00;;;5.05;;
39750;SDS011;37579;51.074;17.004;2022-12-05T04:55:50;7.03;;;5.55;;
39750;SDS011;37579;51.074;17.004;2022-12-05T04:58:19;6.22;;;5.00;;
39750;SDS011;37579;51.074;17.004;2022-12-05T05:06:02;7.07;;;5.75;;
39750;SDS011;37579;51.074;17.004;2022-12-05T05:08:28;7.07;;;5.43;;
39750;SDS011;37579;51.074;17.004;2022-12-05T05:13:40;6.07;;;4.60;;
39750;SDS011;37579;51.074;17.004;2022-12-05T05:16:06;6.35;;;5.40;;
39750;SDS011;37579;51.074;17.004;2022-12-05T05:18:32;6.93;;;5.35;;
39750;SDS011;37579;51.074;17.004;2022-12-05T05:20:58;6.05;;;5.15;;
39750;SDS011;37579;51.074;17.004;2022-12-05T05:23:24;7.13;;;5.40;;
39750;SDS011;37579;51.074;17.004;2022-12-05T05:25:53;5.70;;;4.93;;
39750;SDS011;37579;51.074;17.004;2022-12-05T05:28:20;6.70;;;5.32;;
39750;SDS011;37579;51.074;17.004;2022-12-05T05:30:46;7.53;;;5.68;;
39750;SDS011;37579;51.074;17.004;2022-12-05T05:33:12;6.90;;;4.80;;
39750;SDS011;37579;51.074;17.004;2022-12-05T05:35:38;6.30;;;5.22;;
39750;SDS011;37579;51.074;17.004;2022-12-05T05:38:04;6.80;;;5.70;;
39750;SDS011;37579;51.074;17.004;2022-12-05T05:40:29;7.72;;;5.63;;
39750;SDS011;37579;51.074;17.004;2022-12-05T05:42:55;6.22;;;5.35;;
39750;SDS011;37579;51.074;17.004;2022-12-05T05:45:21;6.53;;;5.05;;
39750;SDS011;37579;51.074;17.004;2022-12-05T05:47:47;6.20;;;4.85;;
39750;SDS011;37579;51.074;17.004;2022-12-05T05:50:14;6.65;;;5.40;;
39750;SDS011;37579;51.074;17.004;2022-12-05T05:52:40;6.03;;;4.93;;
39750;SDS011;37579;51.074;17.004;2022-12-05T05:55:06;7.25;;;5.15;;
39750;SDS011;37579;51.074;17.004;2022-12-05T05:57:33;6.35;;;5.28;;
39750;SDS011;37579;51.074;17.004;2022-12-05T05:59:59;5.43;;;4.60;;
39750;SDS011;37579;51.074;17.004;2022-12-05T06:02:30;8.23;;;5.68;;
39750;SDS011;37579;51.074;17.004;2022-12-05T06:04:59;6.63;;;5.15;;
39750;SDS011;37579;51.074;17.004;2022-12-05T06:07:26;7.00;;;5.25;;
39750;SDS011;37579;51.074;17.004;2022-12-05T06:09:52;5.85;;;5.15;;
39750;SDS011;37579;51.074;17.004;2022-12-05T06:12:17;6.20;;;5.25;;
39750;SDS011;37579;51.074;17.004;2022-12-05T06:14:43;6.68;;;5.28;;
39750;SDS011;37579;51.074;17.004;2022-12-05T06:17:11;7.25;;;5.22;;
39750;SDS011;37579;51.074;17.004;2022-12-05T06:19:36;6.45;;;5.45;;
39750;SDS011;37579;51.074;17.004;2022-12-05T06:22:02;7.15;;;5.15;;
39750;SDS011;37579;51.074;17.004;2022-12-05T06:24:28;6.55;;;5.30;;
39750;SDS011;37579;51.074;17.004;2022-12-05T06:26:53;6.75;;;5.18;;
39750;SDS011;37579;51.074;17.004;2022-12-05T06:29:19;6.00;;;5.20;;
39750;SDS011;37579;51.074;17.004;2022-12-05T06:31:45;6.03;;;4.88;;
39750;SDS011;37579;51.074;17.004;2022-12-05T06:34:11;6.03;;;4.45;;
39750;SDS011;37579;51.074;17.004;2022-12-05T06:36:36;5.72;;;4.95;;
39750;SDS011;37579;51.074;17.004;2022-12-05T06:39:02;6.85;;;5.30;;
39750;SDS011;37579;51.074;17.004;2022-12-05T06:41:29;5.57;;;4.53;;
39750;SDS011;37579;51.074;17.004;2022-12-05T06:43:55;5.88;;;4.75;;
39750;SDS011;37579;51.074;17.004;2022-12-05T06:46:23;5.97;;;4.70;;
39750;SDS011;37579;51.074;17.004;2022-12-05T06:48:54;6.45;;;4.70;;
39750;SDS011;37579;51.074;17.004;2022-12-05T06:51:21;8.57;;;4.95;;
39750;SDS011;37579;51.074;17.004;2022-12-05T06:53:48;5.93;;;4.95;;
39750;SDS011;37579;51.074;17.004;2022-12-05T06:56:15;7.47;;;5.60;;
39750;SDS011;37579;51.074;17.004;2022-12-05T06:58:44;7.15;;;5.30;;
39750;SDS011;37579;51.074;17.004;2022-12-05T07:01:16;8.23;;;5.30;;
39750;SDS011;37579;51.074;17.004;2022-12-05T07:04:02;8.63;;;5.57;;
39750;SDS011;37579;51.074;17.004;2022-12-05T07:06:34;7.80;;;5.32;;
39750;SDS011;37579;51.074;17.004;2022-12-05T07:09:00;7.30;;;5.40;;
39750;SDS011;37579;51.074;17.004;2022-12-05T07:11:28;7.63;;;5.80;;
39750;SDS011;37579;51.074;17.004;2022-12-05T07:13:53;8.13;;;5.57;;
39750;SDS011;37579;51.074;17.004;2022-12-05T07:16:19;6.70;;;5.45;;
39750;SDS011;37579;51.074;17.004;2022-12-05T07:18:45;9.88;;;5.80;;
39750;SDS011;37579;51.074;17.004;2022-12-05T07:21:11;8.52;;;5.13;;
39750;SDS011;37579;51.074;17.004;2022-12-05T07:23:39;7.85;;;5.65;;
39750;SDS011;37579;51.074;17.004;2022-12-05T07:26:06;7.70;;;5.15;;
39750;SDS011;37579;51.074;17.004;2022-12-05T07:28:33;6.32;;;4.72;;
39750;SDS011;37579;51.074;17.004;2022-12-05T07:31:03;6.45;;;5.30;;
39750;SDS011;37579;51.074;17.004;2022-12-05T07:33:31;6.53;;;4.90;;
39750;SDS011;37579;51.074;17.004;2022-12-05T07:36:04;6.28;;;4.65;;
39750;SDS011;37579;51.074;17.004;2022-12-05T07:38:34;7.45;;;4.68;;
39750;SDS011;37579;51.074;17.004;2022-12-05T07:41:03;6.78;;;4.85;;
39750;SDS011;37579;51.074;17.004;2022-12-05T07:43:41;7.43;;;5.38;;
39750;SDS011;37579;51.074;17.004;2022-12-05T07:46:07;5.03;;;4.53;;
39750;SDS011;37579;51.074;17.004;2022-12-05T07:48:35;7.78;;;5.30;;
39750;SDS011;37579;51.074;17.004;2022-12-05T07:51:01;7.47;;;4.60;;
39750;SDS011;37579;51.074;17.004;2022-12-05T07:53:29;6.57;;;4.93;;
39750;SDS011;37579;51.074;17.004;2022-12-05T07:55:57;7.70;;;4.97;;
39750;SDS011;37579;51.074;17.004;2022-12-05T07:58:24;8.10;;;5.28;;
39750;SDS011;37579;51.074;17.004;2022-12-05T08:00:51;7.25;;;5.05;;
39750;SDS011;37579;51.074;17.004;2022-12-05T08:03:17;6.13;;;4.85;;
39750;SDS011;37579;51.074;17.004;2022-12-05T08:05:43;8.45;;;5.32;;
39750;SDS011;37579;51.074;17.004;2022-12-05T08:08:08;7.78;;;4.90;;
39750;SDS011;37579;51.074;17.004;2022-12-05T08:10:34;7.05;;;4.88;;
39750;SDS011;37579;51.074;17.004;2022-12-05T08:13:00;5.93;;;4.55;;
39750;SDS011;37579;51.074;17.004;2022-12-05T08:15:26;7.90;;;5.10;;
39750;SDS011;37579;51.074;17.004;2022-12-05T08:17:51;6.68;;;4.32;;
39750;SDS011;37579;51.074;17.004;2022-12-05T08:20:17;8.77;;;5.18;;
39750;SDS011;37579;51.074;17.004;2022-12-05T08:22:43;6.57;;;4.65;;
39750;SDS011;37579;51.074;17.004;2022-12-05T08:25:09;7.65;;;4.80;;
39750;SDS011;37579;51.074;17.004;2022-12-05T08:27:35;5.80;;;4.60;;
39750;SDS011;37579;51.074;17.004;2022-12-05T08:30:01;6.63;;;4.72;;
39750;SDS011;37579;51.074;17.004;2022-12-05T08:32:26;5.70;;;4.15;;
39750;SDS011;37579;51.074;17.004;2022-12-05T08:34:52;7.20;;;4.90;;
39750;SDS011;37579;51.074;17.004;2022-12-05T08:37:18;6.28;;;4.75;;
39750;SDS011;37579;51.074;17.004;2022-12-05T08:39:43;6.47;;;4.47;;
39750;SDS011;37579;51.074;17.004;2022-12-05T08:42:09;5.60;;;4.43;;
39750;SDS011;37579;51.074;17.004;2022-12-05T08:44:35;5.97;;;4.53;;
39750;SDS011;37579;51.074;17.004;2022-12-05T08:47:01;6.10;;;4.50;;
39750;SDS011;37579;51.074;17.004;2022-12-05T08:49:26;5.95;;;4.60;;
39750;SDS011;37579;51.074;17.004;2022-12-05T08:51:52;7.05;;;4.47;;
39750;SDS011;37579;51.074;17.004;2022-12-05T08:54:18;5.90;;;4.25;;
39750;SDS011;37579;51.074;17.004;2022-12-05T08:56:43;5.78;;;3.78;;
39750;SDS011;37579;51.074;17.004;2022-12-05T08:59:09;6.18;;;4.13;;
39750;SDS011;37579;51.074;17.004;2022-12-05T09:01:35;6.25;;;4.10;;
39750;SDS011;37579;51.074;17.004;2022-12-05T09:04:02;6.95;;;4.47;;
39750;SDS011;37579;51.074;17.004;2022-12-05T09:06:29;6.32;;;4.30;;
39750;SDS011;37579;51.074;17.004;2022-12-05T09:09:01;5.13;;;3.92;;
39750;SDS011;37579;51.074;17.004;2022-12-05T09:11:30;5.53;;;3.90;;
39750;SDS011;37579;51.074;17.004;2022-12-05T09:13:59;6.00;;;4.28;;
39750;SDS011;37579;51.074;17.004;2022-12-05T09:16:27;6.00;;;4.65;;
39750;SDS011;37579;51.074;17.004;2022-12-05T09:18:57;5.22;;;4.10;;
39750;SDS011;37579;51.074;17.004;2022-12-05T09:21:24;6.00;;;4.32;;
39750;SDS011;37579;51.074;17.004;2022-12-05T09:23:51;4.78;;;3.65;;
39750;SDS011;37579;51.074;17.004;2022-12-05T09:26:19;5.88;;;4.55;;
39750;SDS011;37579;51.074;17.004;2022-12-05T09:28:47;6.25;;;4.63;;
39750;SDS011;37579;51.074;17.004;2022-12-05T09:31:14;5.00;;;4.10;;
39750;SDS011;37579;51.074;17.004;2022-12-05T09:33:42;5.57;;;4.97;;
39750;SDS011;37579;51.074;17.004;2022-12-05T09:36:10;7.35;;;4.28;;
39750;SDS011;37579;51.074;17.004;2022-12-05T09:38:38;6.03;;;4.70;;
39750;SDS011;37579;51.074;17.004;2022-12-05T09:41:52;5.22;;;3.85;;
39750;SDS011;37579;51.074;17.004;2022-12-05T09:47:37;5.20;;;4.45;;
39750;SDS011;37579;51.074;17.004;2022-12-05T09:50:29;5.88;;;3.95;;
39750;SDS011;37579;51.074;17.004;2022-12-05T09:58:04;7.88;;;4.45;;
39750;SDS011;37579;51.074;17.004;2022-12-05T10:00:58;5.93;;;4.00;;
39750;SDS011;37579;51.074;17.004;2022-12-05T10:17:41;7.47;;;3.85;;
39750;SDS011;37579;51.074;17.004;2022-12-05T10:20:25;4.85;;;4.00;;
39750;SDS011;37579;51.074;17.004;2022-12-05T10:23:07;4.95;;;3.80;;
39750;SDS011;37579;51.074;17.004;2022-12-05T10:25:41;5.40;;;4.43;;
39750;SDS011;37579;51.074;17.004;2022-12-05T10:28:13;5.47;;;4.35;;
39750;SDS011;37579;51.074;17.004;2022-12-05T10:30:53;6.68;;;4.47;;
39750;SDS011;37579;51.074;17.004;2022-12-05T10:33:22;7.60;;;4.00;;
39750;SDS011;37579;51.074;17.004;2022-12-05T10:35:51;8.27;;;4.18;;
39750;SDS011;37579;51.074;17.004;2022-12-05T10:38:25;8.10;;;4.15;;
39750;SDS011;37579;51.074;17.004;2022-12-05T10:40:59;6.10;;;4.85;;
39750;SDS011;37579;51.074;17.004;2022-12-05T10:43:30;6.18;;;3.90;;
39750;SDS011;37579;51.074;17.004;2022-12-05T10:45:58;6.78;;;4.65;;
39750;SDS011;37579;51.074;17.004;2022-12-05T10:48:26;6.82;;;4.30;;
39750;SDS011;37579;51.074;17.004;2022-12-05T10:50:54;8.45;;;4.32;;
39750;SDS011;37579;51.074;17.004;2022-12-05T10:56:33;5.70;;;4.10;;
39750;SDS011;37579;51.074;17.004;2022-12-05T10:59:03;5.32;;;4.25;;
39750;SDS011;37579;51.074;17.004;2022-12-05T11:01:30;5.95;;;4.10;;
39750;SDS011;37579;51.074;17.004;2022-12-05T11:03:57;6.22;;;4.10;;
39750;SDS011;37579;51.074;17.004;2022-12-05T11:06:25;4.90;;;4.00;;
39750;SDS011;37579;51.074;17.004;2022-12-05T11:08:53;5.43;;;4.13;;
39750;SDS011;37579;51.074;17.004;2022-12-05T11:11:22;7.72;;;3.60;;
39750;SDS011;37579;51.074;17.004;2022-12-05T11:16:22;6.63;;;4.35;;
39750;SDS011;37579;51.074;17.004;2022-12-05T11:18:50;5.78;;;4.07;;
39750;SDS011;37579;51.074;17.004;2022-12-05T11:21:15;7.22;;;4.40;;
39750;SDS011;37579;51.074;17.004;2022-12-05T11:23:44;6.65;;;4.50;;
39750;SDS011;37579;51.074;17.004;2022-12-05T11:29:02;7.00;;;4.20;;
39750;SDS011;37579;51.074;17.004;2022-12-05T11:31:29;5.55;;;4.47;;
39750;SDS011;37579;51.074;17.004;2022-12-05T11:34:00;6.75;;;4.38;;
39750;SDS011;37579;51.074;17.004;2022-12-05T11:36:34;6.10;;;4.10;;
39750;SDS011;37579;51.074;17.004;2022-12-05T11:39:04;7.82;;;4.53;;
39750;SDS011;37579;51.074;17.004;2022-12-05T11:44:59;5.55;;;4.00;;
39750;SDS011;37579;51.074;17.004;2022-12-05T11:53:00;6.82;;;4.75;;
39750;SDS011;37579;51.074;17.004;2022-12-05T11:55:40;6.82;;;4.60;;
39750;SDS011;37579;51.074;17.004;2022-12-05T11:58:35;6.20;;;4.55;;
39750;SDS011;37579;51.074;17.004;2022-12-05T12:07:02;6.18;;;4.75;;
39750;SDS011;37579;51.074;17.004;2022-12-05T12:29:46;8.52;;;5.47;;
39750;SDS011;37579;51.074;17.004;2022-12-05T12:35:31;10.10;;;5.75;;
39750;SDS011;37579;51.074;17.004;2022-12-05T12:38:28;9.75;;;5.53;;
39750;SDS011;37579;51.074;17.004;2022-12-05T12:41:00;10.15;;;5.20;;
39750;SDS011;37579;51.074;17.004;2022-12-05T12:43:50;10.07;;;5.63;;
39750;SDS011;37579;51.074;17.004;2022-12-05T12:46:45;8.02;;;5.45;;
39750;SDS011;37579;51.074;17.004;2022-12-05T12:49:48;9.35;;;5.15;;
39750;SDS011;37579;51.074;17.004;2022-12-05T12:52:25;8.60;;;5.38;;
39750;SDS011;37579;51.074;17.004;2022-12-05T12:55:07;8.98;;;4.75;;
39750;SDS011;37579;51.074;17.004;2022-12-05T13:03:48;8.55;;;5.38;;
39750;SDS011;37579;51.074;17.004;2022-12-05T13:06:17;9.40;;;5.60;;
39750;SDS011;37579;51.074;17.004;2022-12-05T13:08:52;8.82;;;5.05;;
39750;SDS011;37579;51.074;17.004;2022-12-05T13:11:26;8.48;;;4.95;;
39750;SDS011;37579;51.074;17.004;2022-12-05T13:13:58;8.15;;;5.32;;
39750;SDS011;37579;51.074;17.004;2022-12-05T13:16:27;6.88;;;5.38;;
39750;SDS011;37579;51.074;17.004;2022-12-05T13:18:58;7.38;;;5.18;;
39750;SDS011;37579;51.074;17.004;2022-12-05T13:21:26;7.22;;;4.85;;
39750;SDS011;37579;51.074;17.004;2022-12-05T13:23:53;8.93;;;5.18;;
39750;SDS011;37579;51.074;17.004;2022-12-05T13:26:23;9.13;;;5.20;;
39750;SDS011;37579;51.074;17.004;2022-12-05T13:28:51;6.78;;;4.68;;
39750;SDS011;37579;51.074;17.004;2022-12-05T13:31:33;8.77;;;5.15;;
39750;SDS011;37579;51.074;17.004;2022-12-05T13:34:05;9.02;;;5.10;;
39750;SDS011;37579;51.074;17.004;2022-12-05T13:36:51;7.93;;;5.25;;
39750;SDS011;37579;51.074;17.004;2022-12-05T13:39:37;6.50;;;4.38;;
39750;SDS011;37579;51.074;17.004;2022-12-05T13:42:22;7.60;;;4.95;;
39750;SDS011;37579;51.074;17.004;2022-12-05T13:44:52;7.22;;;5.13;;
39750;SDS011;37579;51.074;17.004;2022-12-05T13:50:18;7.68;;;5.07;;
39750;SDS011;37579;51.074;17.004;2022-12-05T13:55:53;8.77;;;4.60;;
39750;SDS011;37579;51.074;17.004;2022-12-05T14:00:48;7.43;;;4.90;;
39750;SDS011;37579;51.074;17.004;2022-12-05T14:05:59;7.35;;;4.90;;
39750;SDS011;37579;51.074;17.004;2022-12-05T14:15:53;8.48;;;5.15;;
39750;SDS011;37579;51.074;17.004;2022-12-05T14:18:43;7.85;;;5.40;;
39750;SDS011;37579;51.074;17.004;2022-12-05T14:21:38;7.97;;;5.18;;
39750;SDS011;37579;51.074;17.004;2022-12-05T14:24:30;11.13;;;6.00;;
39750;SDS011;37579;51.074;17.004;2022-12-05T14:37:56;10.82;;;5.82;;
39750;SDS011;37579;51.074;17.004;2022-12-05T14:42:56;10.77;;;6.20;;
39750;SDS011;37579;51.074;17.004;2022-12-05T14:50:51;9.13;;;5.75;;
39750;SDS011;37579;51.074;17.004;2022-12-05T14:55:54;11.63;;;5.88;;
39750;SDS011;37579;51.074;17.004;2022-12-05T15:01:14;13.40;;;8.30;;
39750;SDS011;37579;51.074;17.004;2022-12-05T15:03:41;11.90;;;7.35;;
39750;SDS011;37579;51.074;17.004;2022-12-05T15:06:28;12.85;;;7.35;;
39750;SDS011;37579;51.074;17.004;2022-12-05T15:08:56;10.52;;;7.03;;
39750;SDS011;37579;51.074;17.004;2022-12-05T15:11:25;10.27;;;6.95;;
39750;SDS011;37579;51.074;17.004;2022-12-05T15:13:59;10.27;;;7.30;;
39750;SDS011;37579;51.074;17.004;2022-12-05T15:16:29;13.82;;;7.32;;
39750;SDS011;37579;51.074;17.004;2022-12-05T15:19:00;10.48;;;6.57;;
39750;SDS011;37579;51.074;17.004;2022-12-05T15:21:41;12.55;;;6.43;;
39750;SDS011;37579;51.074;17.004;2022-12-05T15:24:11;12.55;;;6.55;;
39750;SDS011;37579;51.074;17.004;2022-12-05T15:26:39;20.35;;;8.48;;
39750;SDS011;37579;51.074;17.004;2022-12-05T15:36:50;16.60;;;7.53;;
39750;SDS011;37579;51.074;17.004;2022-12-05T15:39:48;18.38;;;7.95;;
39750;SDS011;37579;51.074;17.004;2022-12-05T15:42:17;15.82;;;6.40;;
39750;SDS011;37579;51.074;17.004;2022-12-05T15:44:42;15.20;;;6.75;;
39750;SDS011;37579;51.074;17.004;2022-12-05T15:47:14;16.10;;;7.05;;
39750;SDS011;37579;51.074;17.004;2022-12-05T15:49:47;13.20;;;6.85;;
39750;SDS011;37579;51.074;17.004;2022-12-05T15:52:27;15.55;;;6.95;;
39750;SDS011;37579;51.074;17.004;2022-12-05T15:54:59;11.95;;;6.53;;
39750;SDS011;37579;51.074;17.004;2022-12-05T15:57:43;13.77;;;6.78;;
39750;SDS011;37579;51.074;17.004;2022-12-05T16:00:31;15.63;;;6.93;;
39750;SDS011;37579;51.074;17.004;2022-12-05T16:03:11;15.43;;;6.82;;
39750;SDS011;37579;51.074;17.004;2022-12-05T16:05:53;13.13;;;6.45;;
39750;SDS011;37579;51.074;17.004;2022-12-05T16:08:23;10.77;;;5.97;;
39750;SDS011;37579;51.074;17.004;2022-12-05T16:10:54;11.40;;;6.30;;
39750;SDS011;37579;51.074;17.004;2022-12-05T16:13:21;12.15;;;7.00;;
39750;SDS011;37579;51.074;17.004;2022-12-05T16:15:49;10.63;;;6.30;;
39750;SDS011;37579;51.074;17.004;2022-12-05T16:18:24;14.02;;;6.82;;
39750;SDS011;37579;51.074;17.004;2022-12-05T16:20:51;13.00;;;7.00;;
39750;SDS011;37579;51.074;17.004;2022-12-05T16:23:27;10.70;;;6.05;;
39750;SDS011;37579;51.074;17.004;2022-12-05T16:28:39;13.27;;;6.28;;
39750;SDS011;37579;51.074;17.004;2022-12-05T16:31:05;12.30;;;6.22;;
39750;SDS011;37579;51.074;17.004;2022-12-05T16:33:31;10.93;;;5.90;;
39750;SDS011;37579;51.074;17.004;2022-12-05T16:36:10;12.05;;;6.57;;
39750;SDS011;37579;51.074;17.004;2022-12-05T16:38:37;9.82;;;5.93;;
39750;SDS011;37579;51.074;17.004;2022-12-05T16:41:08;14.18;;;5.88;;
39750;SDS011;37579;51.074;17.004;2022-12-05T16:48:37;11.25;;;6.18;;
39750;SDS011;37579;51.074;17.004;2022-12-05T16:53:45;10.77;;;6.25;;
39750;SDS011;37579;51.074;17.004;2022-12-05T16:56:14;10.38;;;5.82;;
39750;SDS011;37579;51.074;17.004;2022-12-05T16:58:42;8.30;;;5.22;;
39750;SDS011;37579;51.074;17.004;2022-12-05T17:01:18;10.85;;;6.28;;
39750;SDS011;37579;51.074;17.004;2022-12-05T17:03:46;10.23;;;6.07;;
39750;SDS011;37579;51.074;17.004;2022-12-05T17:06:12;10.32;;;5.65;;
39750;SDS011;37579;51.074;17.004;2022-12-05T17:08:39;10.80;;;5.53;;
39750;SDS011;37579;51.074;17.004;2022-12-05T17:11:16;10.95;;;5.90;;
39750;SDS011;37579;51.074;17.004;2022-12-05T17:13:47;9.30;;;5.30;;
39750;SDS011;37579;51.074;17.004;2022-12-05T17:16:14;9.05;;;5.65;;
39750;SDS011;37579;51.074;17.004;2022-12-05T17:18:42;9.38;;;5.38;;
39750;SDS011;37579;51.074;17.004;2022-12-05T17:21:09;9.27;;;5.28;;
39750;SDS011;37579;51.074;17.004;2022-12-05T17:23:39;10.05;;;6.00;;
39750;SDS011;37579;51.074;17.004;2022-12-05T17:26:04;8.77;;;5.45;;
39750;SDS011;37579;51.074;17.004;2022-12-05T17:28:30;7.28;;;5.13;;
39750;SDS011;37579;51.074;17.004;2022-12-05T17:30:56;7.20;;;5.28;;
39750;SDS011;37579;51.074;17.004;2022-12-05T17:33:21;8.10;;;5.40;;
39750;SDS011;37579;51.074;17.004;2022-12-05T17:35:47;9.68;;;5.20;;
39750;SDS011;37579;51.074;17.004;2022-12-05T17:38:13;8.80;;;4.80;;
39750;SDS011;37579;51.074;17.004;2022-12-05T17:40:39;8.00;;;5.30;;
39750;SDS011;37579;51.074;17.004;2022-12-05T17:43:05;8.07;;;5.45;;
39750;SDS011;37579;51.074;17.004;2022-12-05T17:45:31;9.50;;;6.30;;
39750;SDS011;37579;51.074;17.004;2022-12-05T17:47:57;9.48;;;5.70;;
39750;SDS011;37579;51.074;17.004;2022-12-05T17:50:23;7.93;;;5.78;;